createdAt,value
2022-10-03T00:00:15.042Z,25.15
2022-10-03T00:03:34.654Z,7.28
2022-10-03T00:06:20.999Z,8.70
2022-10-03T00:08:48.875Z,4.13
2022-10-03T00:11:29.031Z,3.78
2022-10-03T00:14:10.852Z,3.00
2022-10-03T00:16:47.547Z,3.13
2022-10-03T00:19:42.875Z,2.42
2022-10-03T00:22:32.382Z,1.20
2022-10-03T00:25:22.418Z,2.90
2022-10-03T00:28:31.068Z,1.50
2022-10-03T00:31:23.012Z,1.30
2022-10-03T00:34:27.120Z,0.80
2022-10-03T00:37:05.489Z,1.00
2022-10-03T00:39:47.487Z,0.90
2022-10-03T00:42:36.630Z,1.42
2022-10-03T00:45:23.540Z,0.95
2022-10-03T00:48:17.021Z,0.80
2022-10-03T00:50:53.696Z,1.15
2022-10-03T00:53:37.488Z,1.10
2022-10-03T00:56:36.530Z,0.80
2022-10-03T00:59:22.433Z,0.70
2022-10-03T01:01:51.238Z,0.70
2022-10-03T01:04:40.891Z,0.60
2022-10-03T01:07:30.009Z,0.77
2022-10-03T01:10:23.557Z,0.68
2022-10-03T01:13:05.721Z,0.55
2022-10-03T01:15:39.418Z,0.82
2022-10-03T01:18:45.174Z,0.50
2022-10-03T01:21:31.712Z,0.68
2022-10-03T01:24:26.794Z,0.75
2022-10-03T01:27:07.894Z,0.80
2022-10-03T01:29:58.066Z,0.70
2022-10-03T01:35:44.760Z,0.98
2022-10-03T01:38:36.580Z,0.85
2022-10-03T01:41:23.268Z,1.00
2022-10-03T01:44:19.585Z,1.25
2022-10-03T01:47:12.382Z,0.95
2022-10-03T01:50:02.794Z,0.75
2022-10-03T01:52:53.783Z,0.80
2022-10-03T01:55:43.073Z,0.60
2022-10-03T01:58:37.188Z,0.75
2022-10-03T02:01:20.570Z,1.00
2022-10-03T02:03:58.253Z,0.70
2022-10-03T02:06:55.827Z,0.80
2022-10-03T02:09:36.595Z,0.80
2022-10-03T02:12:23.039Z,0.77
2022-10-03T02:15:06.222Z,0.80
2022-10-03T02:17:47.603Z,0.80
2022-10-03T02:20:41.115Z,0.80
2022-10-03T02:23:44.003Z,0.93
2022-10-03T02:26:50.453Z,1.13
2022-10-03T02:29:45.731Z,0.90
2022-10-03T02:32:36.007Z,1.13
2022-10-03T02:35:14.103Z,1.02
2022-10-03T02:38:33.655Z,1.45
2022-10-03T02:41:32.764Z,1.05
2022-10-03T02:44:19.827Z,0.88
2022-10-03T02:47:08.454Z,1.17
2022-10-03T02:49:55.421Z,1.00
2022-10-03T02:52:38.188Z,1.00
2022-10-03T02:55:24.423Z,1.33
2022-10-03T02:57:55.301Z,0.70
2022-10-03T03:01:12.938Z,0.80
2022-10-03T03:04:17.411Z,0.70
2022-10-03T03:07:01.518Z,0.80
2022-10-03T03:10:06.451Z,0.57
2022-10-03T03:12:44.684Z,0.80
2022-10-03T03:15:16.939Z,0.60
2022-10-03T03:18:27.893Z,0.80
2022-10-03T03:21:15.749Z,1.08
2022-10-03T03:23:54.684Z,0.93
2022-10-03T03:26:40.807Z,1.20
2022-10-03T03:29:30.508Z,0.95
2022-10-03T03:32:47.432Z,1.50
2022-10-03T03:35:52.446Z,1.30
2022-10-03T03:38:30.395Z,1.75
2022-10-03T03:41:19.858Z,1.90
2022-10-03T03:44:00.200Z,1.90
2022-10-03T03:46:44.454Z,2.10
2022-10-03T03:49:18.630Z,2.13
2022-10-03T03:52:07.259Z,2.30
2022-10-03T03:54:52.248Z,2.70
2022-10-03T03:57:29.284Z,2.38
2022-10-03T04:00:06.207Z,3.25
2022-10-03T04:02:52.731Z,3.28
2022-10-03T04:05:29.171Z,3.22
2022-10-03T04:08:16.012Z,3.47
2022-10-03T04:11:08.813Z,3.75
2022-10-03T04:13:54.949Z,3.40
2022-10-03T04:17:07.712Z,3.53
2022-10-03T04:19:54.726Z,3.72
2022-10-03T04:22:36.746Z,3.80
2022-10-03T04:25:16.139Z,4.05
2022-10-03T04:27:50.181Z,3.97
2022-10-03T04:30:35.521Z,4.28
2022-10-03T04:33:28.466Z,5.10
2022-10-03T04:36:18.268Z,3.65
2022-10-03T04:39:07.394Z,4.07
2022-10-03T04:41:42.716Z,4.07
2022-10-03T04:45:04.560Z,3.72
2022-10-03T04:47:42.708Z,3.47
2022-10-03T04:50:13.634Z,3.88
2022-10-03T04:53:05.056Z,4.00
2022-10-03T04:55:51.908Z,4.07
2022-10-03T04:58:51.153Z,4.10
2022-10-03T05:01:36.775Z,3.90
2022-10-03T05:04:05.130Z,4.20
2022-10-03T05:06:49.636Z,4.28
2022-10-03T05:09:21.015Z,4.00
2022-10-03T05:12:10.019Z,3.28
2022-10-03T05:14:50.090Z,4.07
2022-10-03T05:17:39.475Z,3.80
2022-10-03T05:20:34.945Z,4.10
2022-10-03T05:23:34.461Z,3.50
2022-10-03T05:26:42.958Z,4.18
2022-10-03T05:29:11.670Z,4.40
2022-10-03T05:31:49.386Z,4.47
2022-10-03T05:34:55.248Z,4.25
2022-10-03T05:37:40.099Z,4.65
2022-10-03T05:40:24.121Z,4.13
2022-10-03T05:42:58.466Z,4.63
2022-10-03T05:45:45.825Z,4.40
2022-10-03T05:49:16.784Z,4.88
2022-10-03T05:51:50.538Z,4.30
2022-10-03T05:54:37.359Z,5.32
2022-10-03T05:57:07.931Z,6.88
2022-10-03T06:00:02.779Z,6.70
2022-10-03T06:02:51.735Z,4.93
2022-10-03T06:05:32.331Z,5.30
2022-10-03T06:08:20.112Z,4.65
2022-10-03T06:11:14.127Z,11.18
2022-10-03T06:14:02.959Z,4.93
2022-10-03T06:16:38.128Z,4.83
2022-10-03T06:19:38.247Z,9.88
2022-10-03T06:22:40.076Z,5.55
2022-10-03T06:25:14.324Z,4.43
2022-10-03T06:28:09.900Z,4.38
2022-10-03T06:31:22.114Z,10.18
2022-10-03T06:34:05.186Z,5.10
2022-10-03T06:36:42.075Z,4.53
2022-10-03T06:39:35.103Z,7.40
2022-10-03T06:42:16.105Z,4.03
2022-10-03T06:44:52.894Z,4.20
2022-10-03T06:47:58.129Z,4.10
2022-10-03T06:50:44.624Z,3.75
2022-10-03T06:53:32.979Z,3.63
2022-10-03T06:56:46.337Z,3.58
2022-10-03T06:59:39.267Z,3.13
2022-10-03T07:02:25.509Z,3.15
2022-10-03T07:05:38.645Z,6.05
2022-10-03T07:09:03.823Z,3.05
2022-10-03T07:11:44.720Z,2.78
2022-10-03T07:14:50.671Z,2.72
2022-10-03T07:17:50.616Z,2.35
2022-10-03T07:20:24.427Z,1.98
2022-10-03T07:23:01.327Z,2.05
2022-10-03T07:26:15.277Z,2.25
2022-10-03T07:29:07.689Z,1.55
2022-10-03T07:32:00.169Z,1.40
2022-10-03T07:34:49.775Z,1.73
2022-10-03T07:38:01.779Z,1.50
2022-10-03T07:41:06.838Z,1.20
2022-10-03T07:43:48.196Z,1.40
2022-10-03T07:46:54.746Z,1.50
2022-10-03T07:49:43.548Z,1.20
2022-10-03T07:52:17.463Z,1.42
2022-10-03T07:55:03.833Z,1.50
2022-10-03T07:57:44.201Z,1.30
2022-10-03T08:00:25.468Z,1.40
2022-10-03T08:03:22.588Z,1.95
2022-10-03T08:06:17.017Z,1.50
2022-10-03T08:09:16.083Z,1.65
2022-10-03T08:11:50.527Z,1.80
2022-10-03T08:14:46.355Z,1.60
2022-10-03T08:17:36.431Z,1.73
2022-10-03T08:20:23.361Z,1.63
2022-10-03T08:23:20.033Z,1.77
2022-10-03T08:26:17.221Z,1.80
2022-10-03T08:29:30.173Z,1.65
2022-10-03T08:32:33.831Z,1.60
2022-10-03T08:35:05.156Z,1.00
2022-10-03T08:37:51.946Z,1.10
2022-10-03T08:40:29.777Z,1.20
2022-10-03T08:43:35.369Z,1.25
2022-10-03T08:46:17.210Z,1.20
2022-10-03T08:49:17.467Z,1.10
2022-10-03T08:52:13.896Z,0.98
2022-10-03T08:54:51.488Z,1.35
2022-10-03T08:57:41.172Z,1.02
2022-10-03T09:00:23.712Z,1.10
2022-10-03T09:03:33.570Z,1.05
2022-10-03T09:07:17.428Z,1.20
2022-10-03T09:09:54.894Z,0.98
2022-10-03T09:12:35.863Z,1.30
2022-10-03T09:15:14.943Z,1.00
2022-10-03T09:18:10.621Z,1.02
2022-10-03T09:21:07.092Z,1.13
2022-10-03T09:23:57.619Z,0.93
2022-10-03T09:26:31.910Z,1.30
2022-10-03T09:29:18.828Z,1.27
2022-10-03T09:31:59.171Z,1.00
2022-10-03T09:34:46.265Z,1.30
2022-10-03T09:37:31.387Z,1.17
2022-10-03T09:40:00.570Z,0.90
2022-10-03T09:43:16.610Z,1.33
2022-10-03T09:46:12.539Z,1.10
2022-10-03T09:48:52.957Z,1.20
2022-10-03T09:51:36.330Z,0.90
2022-10-03T09:54:29.485Z,0.98
2022-10-03T09:57:03.546Z,1.30
2022-10-03T09:59:52.839Z,1.23
2022-10-03T10:03:02.492Z,1.17
2022-10-03T10:05:51.499Z,1.20
2022-10-03T10:08:42.378Z,1.13
2022-10-03T10:11:35.284Z,1.48
2022-10-03T10:14:12.948Z,1.40
2022-10-03T10:17:09.629Z,1.20
2022-10-03T10:19:51.512Z,1.30
2022-10-03T10:22:40.772Z,1.60
2022-10-03T10:30:04.085Z,1.38
2022-10-03T10:34:00.002Z,1.58
2022-10-03T10:48:54.436Z,1.90
2022-10-03T10:56:54.853Z,2.35
2022-10-03T11:01:48.452Z,2.05
2022-10-03T11:04:30.204Z,2.17
2022-10-03T11:08:57.316Z,1.70
2022-10-03T11:13:35.524Z,1.60
2022-10-03T11:22:32.554Z,1.80
2022-10-03T11:31:04.794Z,1.40
2022-10-03T11:45:20.201Z,1.38
2022-10-03T11:49:41.694Z,1.60
2022-10-03T11:53:43.108Z,1.80
2022-10-03T12:09:55.188Z,1.98
2022-10-03T12:17:06.935Z,2.10
2022-10-03T12:20:46.029Z,1.60
2022-10-03T12:24:47.217Z,1.40
2022-10-03T12:27:15.737Z,1.42
2022-10-03T12:30:33.660Z,1.45
2022-10-03T12:39:03.584Z,2.22
2022-10-03T12:42:15.042Z,4.15
2022-10-03T12:45:01.290Z,1.60
2022-10-03T12:48:50.733Z,3.22
2022-10-03T12:59:38.534Z,5.78
2022-10-03T13:03:04.094Z,2.30
2022-10-03T13:06:07.483Z,1.83
2022-10-03T13:08:59.885Z,1.98
2022-10-03T13:11:39.384Z,3.08
2022-10-03T13:14:11.923Z,3.95
2022-10-03T13:16:55.933Z,5.45
2022-10-03T13:19:29.977Z,3.08
2022-10-03T13:22:23.595Z,2.05
2022-10-03T13:25:20.017Z,3.50
2022-10-03T13:28:08.988Z,2.63
2022-10-03T13:30:56.339Z,2.33
2022-10-03T13:33:26.668Z,2.20
2022-10-03T13:38:50.049Z,2.33
2022-10-03T13:41:29.035Z,2.22
2022-10-03T13:44:02.924Z,2.25
2022-10-03T13:46:45.333Z,2.88
2022-10-03T13:49:24.503Z,2.40
2022-10-03T13:51:59.478Z,2.42
2022-10-03T13:54:41.633Z,3.80
2022-10-03T13:57:37.149Z,3.67
2022-10-03T14:00:16.845Z,2.72
2022-10-03T14:03:05.082Z,3.05
2022-10-03T14:06:00.893Z,3.50
2022-10-03T14:08:48.826Z,3.80
2022-10-03T14:11:34.032Z,2.92
2022-10-03T14:14:24.678Z,4.22
2022-10-03T14:17:24.726Z,2.80
2022-10-03T14:20:21.523Z,2.05
2022-10-03T14:23:07.938Z,2.58
2022-10-03T14:25:56.554Z,5.50
2022-10-03T14:28:32.684Z,4.20
2022-10-03T14:31:19.410Z,3.00
2022-10-03T14:34:08.356Z,4.18
2022-10-03T14:37:12.534Z,5.03
2022-10-03T14:39:58.688Z,4.60
2022-10-03T14:42:44.362Z,6.57
2022-10-03T14:45:23.866Z,4.72
2022-10-03T14:48:00.270Z,4.22
2022-10-03T14:50:31.923Z,6.28
2022-10-03T14:53:08.117Z,4.57
2022-10-03T14:55:47.005Z,4.47
2022-10-03T14:58:34.776Z,4.80
2022-10-03T15:01:29.089Z,3.90
2022-10-03T15:04:09.433Z,4.55
2022-10-03T15:06:48.555Z,8.38
2022-10-03T15:09:33.787Z,7.30
2022-10-03T15:12:17.474Z,9.38
2022-10-03T15:15:20.197Z,12.23
2022-10-03T15:17:54.538Z,6.10
2022-10-03T15:20:39.229Z,5.00
2022-10-03T15:23:31.285Z,6.00
2022-10-03T15:26:32.710Z,5.38
2022-10-03T15:29:26.831Z,11.18
2022-10-03T15:32:20.818Z,24.17
2022-10-03T15:34:53.325Z,18.25
2022-10-03T15:37:28.721Z,16.52
2022-10-03T15:43:58.419Z,15.57
2022-10-03T15:46:55.333Z,14.90
2022-10-03T15:49:54.651Z,16.10
2022-10-03T15:53:17.784Z,14.73
2022-10-03T15:56:13.589Z,12.80
2022-10-03T15:59:27.738Z,24.17
2022-10-03T16:02:30.311Z,15.32
2022-10-03T16:05:29.304Z,15.02
2022-10-03T16:08:04.403Z,16.10
2022-10-03T16:10:59.047Z,19.60
2022-10-03T16:17:36.662Z,12.65
2022-10-03T16:20:25.436Z,12.75
2022-10-03T16:23:04.769Z,14.83
2022-10-03T16:25:55.722Z,8.70
2022-10-03T16:28:42.390Z,8.48
2022-10-03T16:31:22.545Z,8.70
2022-10-03T16:34:13.684Z,8.68
2022-10-03T16:36:52.495Z,7.72
2022-10-03T16:39:35.116Z,8.50
2022-10-03T16:42:22.013Z,10.93
2022-10-03T16:44:58.352Z,11.48
2022-10-03T16:47:39.700Z,19.95
2022-10-03T16:50:28.066Z,19.77
2022-10-03T16:52:59.280Z,23.83
2022-10-03T16:55:43.242Z,14.18
2022-10-03T16:58:29.620Z,9.98
2022-10-03T17:01:26.538Z,13.68
2022-10-03T17:04:17.222Z,9.23
2022-10-03T17:06:51.903Z,13.00
2022-10-03T17:09:37.565Z,9.27
2022-10-03T17:12:24.060Z,9.98
2022-10-03T17:14:55.981Z,11.90
2022-10-03T17:17:40.336Z,11.40
2022-10-03T17:20:15.534Z,9.85
2022-10-03T17:22:57.411Z,6.78
2022-10-03T17:25:49.593Z,8.43
2022-10-03T17:28:40.294Z,10.43
2022-10-03T17:31:29.817Z,11.20
2022-10-03T17:34:33.948Z,32.20
2022-10-03T17:37:08.217Z,8.82
2022-10-03T17:39:44.016Z,8.25
2022-10-03T17:42:37.698Z,9.35
2022-10-03T17:45:18.822Z,8.93
2022-10-03T17:48:13.373Z,12.10
2022-10-03T17:51:03.210Z,10.63
2022-10-03T17:53:36.450Z,12.30
2022-10-03T17:56:14.591Z,7.75
2022-10-03T17:58:49.641Z,10.50
2022-10-03T18:01:35.036Z,9.45
2022-10-03T18:04:08.917Z,9.55
2022-10-03T18:06:52.589Z,8.45
2022-10-03T18:09:32.931Z,8.77
2022-10-03T18:12:21.122Z,5.13
2022-10-03T18:15:08.856Z,3.95
2022-10-03T18:18:11.162Z,6.70
2022-10-03T18:20:51.681Z,8.57
2022-10-03T18:23:53.881Z,9.07
2022-10-03T18:26:36.321Z,3.97
2022-10-03T18:29:35.890Z,3.88
2022-10-03T18:32:23.531Z,4.38
2022-10-03T18:35:15.539Z,8.48
2022-10-03T18:37:53.326Z,17.88
2022-10-03T18:40:47.913Z,9.80
2022-10-03T18:43:36.274Z,6.18
2022-10-03T18:46:11.106Z,3.07
2022-10-03T18:49:22.928Z,2.55
2022-10-03T18:51:48.387Z,3.05
2022-10-03T18:54:29.131Z,6.80
2022-10-03T18:57:21.001Z,6.22
2022-10-03T19:00:10.075Z,2.67
2022-10-03T19:02:57.861Z,4.18
2022-10-03T19:06:02.659Z,2.60
2022-10-03T19:08:49.306Z,13.98
2022-10-03T19:11:40.090Z,3.50
2022-10-03T19:14:30.020Z,2.70
2022-10-03T19:17:18.576Z,3.63
2022-10-03T19:20:00.962Z,3.83
2022-10-03T19:22:39.019Z,2.30
2022-10-03T19:25:23.566Z,3.60
2022-10-03T19:28:18.425Z,4.25
2022-10-03T19:30:58.048Z,2.80
2022-10-03T19:33:30.522Z,3.83
2022-10-03T19:36:05.201Z,4.45
2022-10-03T19:38:43.005Z,5.82
2022-10-03T19:41:38.097Z,2.95
2022-10-03T19:44:19.871Z,2.50
2022-10-03T19:47:15.543Z,2.53
2022-10-03T19:49:57.707Z,3.28
2022-10-03T19:52:35.800Z,2.78
2022-10-03T19:55:14.362Z,2.63
2022-10-03T19:58:12.770Z,3.10
2022-10-03T20:00:50.509Z,2.90
2022-10-03T20:03:44.132Z,2.50
2022-10-03T20:06:39.917Z,3.13
2022-10-03T20:09:18.771Z,4.15
2022-10-03T20:11:54.097Z,3.90
2022-10-03T20:14:34.054Z,1.98
2022-10-03T20:17:12.914Z,2.00
2022-10-03T20:19:54.940Z,1.52
2022-10-03T20:22:30.350Z,1.65
2022-10-03T20:25:01.261Z,1.70
2022-10-03T20:27:45.521Z,1.70
2022-10-03T20:30:46.461Z,1.98
2022-10-03T20:33:21.889Z,1.70
2022-10-03T20:35:56.418Z,2.70
2022-10-03T20:38:40.407Z,1.65
2022-10-03T20:41:30.720Z,1.80
2022-10-03T20:44:03.615Z,1.65
2022-10-03T20:47:05.980Z,1.90
2022-10-03T20:49:44.306Z,1.70
2022-10-03T20:52:20.447Z,1.88
2022-10-03T20:55:03.555Z,1.65
2022-10-03T20:58:02.750Z,1.65
2022-10-03T21:00:31.709Z,1.98
2022-10-03T21:03:05.058Z,1.60
2022-10-03T21:06:01.214Z,1.65
2022-10-03T21:08:36.837Z,2.17
2022-10-03T21:11:15.481Z,2.05
2022-10-03T21:14:03.596Z,2.92
2022-10-03T21:16:41.134Z,1.98
2022-10-03T21:19:33.806Z,2.50
2022-10-03T21:22:09.656Z,1.75
2022-10-03T21:24:50.561Z,3.00
2022-10-03T21:27:22.756Z,2.33
2022-10-03T21:30:10.450Z,2.40
2022-10-03T21:33:03.094Z,2.70
2022-10-03T21:35:37.704Z,2.22
2022-10-03T21:38:33.063Z,2.40
2022-10-03T21:41:26.250Z,4.47
2022-10-03T21:43:54.443Z,1.90
2022-10-03T21:46:29.172Z,2.13
2022-10-03T21:49:22.105Z,1.60
2022-10-03T21:51:52.279Z,2.30
2022-10-03T21:57:03.887Z,1.70
2022-10-03T21:59:56.348Z,2.30
2022-10-03T22:02:37.945Z,1.70
2022-10-03T22:05:29.713Z,2.05
2022-10-03T22:07:57.916Z,2.28
2022-10-03T22:10:30.034Z,1.52
2022-10-03T22:13:05.067Z,1.70
2022-10-03T22:15:39.371Z,2.00
2022-10-03T22:18:19.503Z,1.70
2022-10-03T22:21:19.900Z,2.47
2022-10-03T22:26:40.407Z,1.42
2022-10-03T22:29:28.458Z,2.00
2022-10-03T22:32:21.763Z,1.60
2022-10-03T22:35:10.421Z,1.40
2022-10-03T22:37:39.229Z,1.63
2022-10-03T22:40:08.841Z,1.77
2022-10-03T22:42:49.499Z,1.65
2022-10-03T22:45:19.024Z,1.77
2022-10-03T22:47:52.866Z,1.30
2022-10-03T22:50:26.252Z,1.75
2022-10-03T22:52:55.100Z,1.52
2022-10-03T22:55:26.064Z,1.67
2022-10-03T22:57:55.689Z,1.42
2022-10-03T23:03:25.802Z,1.60
2022-10-03T23:06:15.946Z,1.85
2022-10-03T23:09:02.553Z,1.70
2022-10-03T23:11:35.323Z,1.35
2022-10-03T23:14:11.573Z,1.50
2022-10-03T23:16:59.537Z,1.75
2022-10-03T23:19:53.559Z,1.55
2022-10-03T23:22:27.006Z,1.58
2022-10-03T23:25:01.372Z,1.17
2022-10-03T23:27:52.882Z,3.20
2022-10-03T23:30:23.592Z,1.63
2022-10-03T23:32:54.648Z,5.45
2022-10-03T23:35:31.692Z,1.60
2022-10-03T23:38:01.327Z,1.60
2022-10-03T23:40:38.599Z,1.52
2022-10-03T23:43:25.937Z,2.00
2022-10-03T23:46:00.004Z,1.40
2022-10-03T23:48:30.724Z,1.33
2022-10-03T23:51:02.962Z,1.30
2022-10-03T23:53:39.329Z,1.42
2022-10-03T23:56:23.348Z,1.35
2022-10-03T23:59:03.999Z,1.25
